Tiempo atmosférico en la estación meteorológica de Vigo Aeropuerto, Pontevedra (261 m.)



Fecha
DESCASC
Temp. máxima en grados centígrados (hora)
DESCASC
Temp. mínima en grados centígrados (hora)
DESCASC
Temp. media en grados centígrados
DESCASC
Racha de viento máxima en m/sg (hora)
DESCASC
Velocidad máxima media en intervalos de 10 minutos(hora)
DESCASC
Precipitaciones diarias en mm
DESCASC
Precipitaciones de 00:00 a 06:00 en mm
DESCASC
Precipitaciones de 06:00 a 12:00 en mm
DESCASC
Precipitaciones de 12:00 a 18:00 en mm
DESCASC
Precipitaciones de 18:00 a 24:00 en mm
DESCASC
24-09-2020 18.4 (15:20) 13.6 (07:00) 16 11.39 (13:50) 6.67 (15:30) 1.9 1.5 0 0.4 0
23-09-2020 19.2 (16:30) 15.2 (00:00) 17.2 8.33 (00:50) 5.56 (01:00) 28.4 27.3 0.4 0.7 0
22-09-2020 22.3 (14:40) 12.8 (00:00) 17.5 8.33 (22:30) 5.28 (22:50) 5.7 0 0 0 5.7
21-09-2020 21.5 (15:10) 13.8 (00:00) 17.7 8.89 (17:00) 6.11 (17:20) 0 0 0 0 0
20-09-2020 20.6 (16:40) 14.9 (00:00) 17.8 11.67 (15:40) 7.5 (15:40) 0.8 0.1 0.7 0 0
19-09-2020 21.4 (17:30) 16 (00:00) 18.7 6.67 (20:00) 4.17 (02:20) 10.4 6.3 3.4 0.5 0.2
18-09-2020 25.9 (17:20) 15.4 (00:00) 20.6 7.78 (21:40) 4.72 (21:40) 1.8 1 0 0 0.8
17-09-2020 26 (14:30) 16.2 (00:00) 21.1 11.67 (08:00) 8.33 (08:00) 21.3 0 0 20.6 0.7
16-09-2020 26.8 (14:40) 15.4 (07:20) 21.1 10.83 (19:50) 7.5 (19:50) 0 0 0 0 0
15-09-2020 25.3 (17:20) 16.7 (00:00) 21 9.17 (16:20) 6.11 (16:30) 0 0 0 0 0
14-09-2020 26.4 (16:50) 17.6 (00:00) 22 9.72 (15:20) 6.11 (15:30) 0.3 0.1 0.2 0 0
13-09-2020 32.3 (13:40) 21.7 (00:00) 27 7.78 (14:40) 5.28 (09:40) 0 0 0 0 0
12-09-2020 36.6 (16:10) 17.9 (08:20) 27.2 7.78 (23:40) 4.17 (08:30) 0 0 0 0 0
11-09-2020 30.8 (16:00) 17.5 (00:00) 24.1 8.89 (13:40) 4.17 (17:20) 0 0 0 0 0
10-09-2020 30.1 (14:20) 15.8 (00:00) 23 6.11 (15:50) 4.72 (17:20) 0 0 0 0 0
09-09-2020 31 (14:30) 15.9 (08:30) 23.4 8.33 (17:30) 6.11 (17:20) 0 0 0 0 0
08-09-2020 30.4 (16:00) 15 (00:00) 22.7 8.89 (00:30) 5.83 (17:00) 0 0 0 0 0
07-09-2020 29.5 (16:20) 13.7 (04:10) 21.6 9.72 (23:40) 4.72 (23:40) 0 0 0 0 0
06-09-2020 29.5 (16:20) 14.5 (00:00) 22 9.72 (21:50) 6.67 (00:20) 0 0 0 0 0
05-09-2020 29.3 (15:50) 14.7 (00:00) 22 12.5 (21:30) 7.5 (18:50) 0 0 0 0 0
04-09-2020 27.8 (14:00) 16.5 (00:00) 22.1 7.78 (17:30) 6.11 (18:10) 0 0 0 0 0
03-09-2020 31.1 (15:20) 16.9 (00:00) 24 6.11 (18:50) 3.89 (08:30) 0 0 0 0 0
02-09-2020 27.8 (17:50) 11.9 (00:00) 19.8 7.22 (00:10) 5 (16:20) 0 0 0 0 0
01-09-2020 24.2 (18:20) 12.8 (00:00) 18.5 10.83 (21:00) 7.22 (20:40) 0 0 0 0 0
31-08-2020 23.5 (13:20) 10.9 (00:00) 17.2 9.17 (21:50) 5.56 (14:10) 0 0 0 0 0
30-08-2020 24.1 (16:00) 10.5 (00:00) 17.3 10.28 (19:30) 6.94 (18:50) 0 0 0 0 0
29-08-2020 22 (16:30) 12.4 (00:00) 17.2 14.44 (16:40) 8.61 (17:00) 0 0 0 0 0
28-08-2020 21.4 (12:50) 14.3 (00:00) 17.8 11.39 (16:30) 6.67 (16:30) 0.7 0.7 0 0 0
27-08-2020 23.3 (17:20) 18.6 (00:00) 20.9 9.17 (21:50) 5.56 (13:20) 0.3 0 0 0 0.3
26-08-2020 28.2 (13:40) 18 (00:00) 23.1 9.72 (18:00) 7.22 (18:00) 0 0 0 0 0

Gráficas

Temp. máximas Temp. mínimas Temp. medias Precipitaciones Rachas de viento máximas Velocidades máximas media en intervalos de 10 minutos

Datos horarios

Fecha y hora oficial Temperatura (ºC) Velocidad del viento (km/h) Dirección del viento Racha (km/h) Dirección de racha Precipitación (mm) Presión (hPa) Tendencia (hPa) Humedad (%)
2020-09-24 23:00:00 14.2 11 Noroeste 22 Norte 0 991.2 2 85
2020-09-24 22:00:00 14.3 13 Noroeste 32 Noroeste 0 990.6 -- 86
2020-09-24 21:00:00 15.2 10 Noroeste 24 Noroeste 0 989.6 -- 84
2020-09-24 20:00:00 15.5 17 Noroeste 32 Oeste 0 989.2 -- 90
2020-09-24 19:00:00 14.9 11 Sudoeste 35 Noroeste 0 988.7 -- 96
2020-09-24 18:00:00 16.8 9 Oeste 33 Oeste 0 988.3 -- 77
2020-09-24 17:00:00 16.5 11 Oeste 22 Sudoeste 0 988.4 -- 89
2020-09-24 16:00:00 14.9 15 Oeste 39 Oeste 0.3 988.4 -- 98
2020-09-24 15:00:00 17.4 15 Sudoeste 24 Oeste 0 988.2 -- 75
2020-09-24 14:00:00 14.8 18 Oeste 41 Noroeste 0.1 988.3 -- 96
2020-09-24 13:00:00 16.5 15 Oeste 33 Oeste 0 987.8 -- 85
2020-09-24 12:00:00 16.7 18 Sudoeste 32 Oeste 0 987.5 -- 76
2020-09-24 11:00:00 15.5 6 Sur 11 Sur 0 987 -- 100
2020-09-24 10:00:00 14.2 5 Sur 9 Sudeste 0 986.4 -- 100
2020-09-24 09:00:00 13.8 6 Sur 9 Sur 0 985.7 -- 100
2020-09-24 08:00:00 13.9 4 Sudoeste 8 Sudoeste 0 985.5 -- 100
2020-09-24 07:00:00 13.7 5 Oeste -- -- 0 985.4 -- 100
2020-09-24 06:00:00 14.2 3 Sur 9 Sur 1.4 985.4 -- 100
2020-09-24 05:00:00 14.4 5 Sur 11 Sudeste 0 985.6 -- 100
2020-09-24 04:00:00 14.5 6 Sur 13 Sur 0 986.1 -- 100
2020-09-24 03:00:00 14.6 8 Sudoeste -- -- -- 986 -- 100
2020-09-24 02:00:00 14.7 6 Sudoeste 9 Sur 0 986.2 -- 100
2020-09-24 01:00:00 14.7 5 Sur 18 Oeste 0.1 986.1 -- 100
2020-09-24 00:00:00 15.6 13 Oeste 21 Oeste 0 985.8 -- 97
2020-09-23 23:00:00 15.4 6 Sudoeste 8 Sudoeste 0 985.5 -- 100
2020-09-23 22:00:00 15.5 6 Sudoeste 18 Oeste 0 985.3 -- 99
2020-09-23 21:00:00 16.2 12 Sudoeste 24 Sudoeste 0 984.7 -- 93
2020-09-23 20:00:00 16.9 13 Sudoeste 24 Oeste 0 984.4 -- 93
2020-09-23 19:00:00 17.8 14 Oeste 26 Sudoeste 0 984.3 -- 80
2020-09-23 18:00:00 18.1 19 Oeste 30 Oeste 0 984 -- 78
2020-09-23 17:00:00 18.3 16 Sudoeste 24 Sudoeste 0 983.8 -- 86
2020-09-23 16:00:00 18.6 17 Sudoeste 28 Sudoeste 0 984 -- 91
2020-09-23 15:00:00 18.5 13 Oeste 26 Sudoeste 0 984 -- 95
2020-09-23 14:00:00 17.5 10 Sur 28 Oeste 0.2 984 -- 100
2020-09-23 13:00:00 17.2 11 Oeste 26 Oeste 0.5 983.9 -- 100
2020-09-23 12:00:00 17.2 13 Sudoeste 22 Oeste 0.1 983.4 -- 100
2020-09-23 11:00:00 17.3 8 Sudoeste 15 Sudoeste 0 982.9 -- 100
2020-09-23 10:00:00 17 6 Sudoeste 13 Sudoeste 0 982.6 -- 100
2020-09-23 09:00:00 16.7 4 Oeste 13 Oeste 0.3 982.1 -- 100
2020-09-23 08:00:00 16.9 7 Sudoeste 13 Sudoeste 0 981.5 -- 100
2020-09-23 07:00:00 16.7 5 Sudoeste 9 Sudoeste 0 981.4 -- 100
2020-09-23 06:00:00 16.6 7 Sudoeste 9 Oeste 0 981.4 -- 100
2020-09-23 05:00:00 16.9 6 Oeste 11 Sudoeste 0 981.6 -- 100
2020-09-23 04:00:00 17.1 5 Oeste 21 Oeste 0 981.9 -- 100
2020-09-23 03:00:00 17.5 8 Sudoeste -- -- -- 982 -- 100
2020-09-23 02:00:00 17.4 17 Sudoeste 30 Sudoeste 14.9 981.9 -- 100
2020-09-23 01:00:00 16.9 20 Sur 30 Sur 12.4 981.9 -- 100
2020-09-23 00:00:00 16.8 18 Sur 30 Sur 3.4 982.6 -- 100
2020-09-22 23:00:00 16.9 18 Sur 30 Sur 0.9 983.3 -- 100
2020-09-22 22:00:00 17.1 15 Sur 22 Sur 0 983.3 -- 100
2020-09-22 21:00:00 17.5 10 Sudoeste 24 Sur 1.4 983.2 -- 100
2020-09-22 20:00:00 18.8 13 Sur 21 Sur 0 983.1 -- 95
2020-09-22 19:00:00 19.6 13 Sur 22 Sur 0 983.5 -- 83
2020-09-22 18:00:00 20.5 12 Sur 26 Sur 0 983.6 -- 79
2020-09-22 17:00:00 19.9 13 Sur 21 Sur 0 984.3 -- 81
2020-09-22 16:00:00 19.6 6 Sudoeste 21 Oeste 0 984.8 -- 85
2020-09-22 15:00:00 20.9 17 Sudoeste 28 Sur 0 985.5 -- 68
2020-09-22 14:00:00 21.2 12 Sur 22 Sur 0 985.8 -- 63
2020-09-22 13:00:00 19.5 10 Sudeste 21 Sur 0 986.4 -- 73
2020-09-22 12:00:00 15.5 9 Sur 18 Sur 0 986.8 -- 100
2020-09-22 11:00:00 14 7 Sur 11 Sur 0 986.9 -- 100
2020-09-22 10:00:00 13.2 10 Sur 15 Sur 0 986.8 -- 100
2020-09-22 09:00:00 12.9 4 Sudoeste 13 Sudoeste 0 986.7 -- 100
2020-09-22 08:00:00 13 11 Sur 15 Sur 0 986.6 -- 100
2020-09-22 07:00:00 13.4 12 Sudoeste 15 Sur 0 986.6 -- 100
2020-09-22 06:00:00 13.6 9 Sudoeste 13 Sudoeste 0 986.7 -- 100
2020-09-22 05:00:00 13.8 8 Sudoeste 11 Sudoeste 0 986.8 -- 100
2020-09-22 04:00:00 13.8 4 Oeste 8 Sudoeste 0 987.3 -- 100
2020-09-22 03:00:00 14 4 Oeste -- -- -- 987.8 -- 100
2020-09-22 02:00:00 13.8 0 Calma 5 Noroeste 0 988.2 -- 100
2020-09-22 01:00:00 14.4 3 Norte 9 Noroeste 0 988.7 -- 100
2020-09-22 00:00:00 14.6 4 Noroeste -- -- 0 989 -- 100
2020-09-21 23:00:00 15 8 Noroeste -- -- 0 989.1 -- 100
2020-09-21 22:00:00 15.6 4 Oeste 30 Oeste 0 988.9 -- 100
2020-09-21 21:00:00 16.5 6 Norte 21 Oeste 0 988.7 -- 100
2020-09-21 20:00:00 17.9 14 Oeste 22 Oeste 0 988.6 -- 90
2020-09-21 19:00:00 18.8 16 Oeste 28 Oeste 0 988.7 -- 82
2020-09-21 18:00:00 19.9 19 Oeste 32 Oeste 0 988.7 -- 74
2020-09-21 17:00:00 19.4 20 Oeste 32 Oeste 0 988.8 -- 76
2020-09-21 16:00:00 19.7 15 Oeste 24 Oeste 0 989 -- 78
2020-09-21 15:00:00 21 12 Sudoeste 22 Sudoeste 0 989.3 -- 71
2020-09-21 14:00:00 20.8 11 Oeste 18 Oeste 0 989.4 -- 68
2020-09-21 13:00:00 20.3 12 Sur 18 Sur 0 989.8 -- 74
2020-09-21 12:00:00 18.3 9 Sur 15 Sur 0 989.9 -- 88
2020-09-21 11:00:00 15.1 9 Sur 17 Sur 0 989.7 -- 100
2020-09-21 10:00:00 14.2 11 Sur 17 Sur 0 989.6 -- 100
2020-09-21 09:00:00 14.1 5 Sur 15 Sudoeste 0 989.5 -- 100
2020-09-21 08:00:00 14.1 9 Sur 17 Sur 0 989 -- 100
2020-09-21 07:00:00 14.4 7 Sur 15 Sur 0 988.8 -- 100
2020-09-21 06:00:00 14.3 8 Sur 17 Sur 0 988.6 -- 100
2020-09-21 05:00:00 14.6 12 Sur 15 Sur 0 988.6 -- 100
2020-09-21 04:00:00 13.9 5 Sudoeste 8 Oeste 0 989.1 -- 100
2020-09-21 03:00:00 14.4 4 Norte -- -- -- 989.4 -- 100
2020-09-21 02:00:00 15 8 Sudoeste 11 Sudoeste 0 989.6 -- 100
2020-09-21 01:00:00 14.8 6 Sudoeste 9 Oeste 0 989.5 -- 100
2020-09-21 00:00:00 14.9 7 Sudoeste 9 Sudoeste 0 989.9 -- 100
2020-09-20 23:00:00 16.1 4 Oeste 9 Oeste 0 990.1 -- 100
2020-09-20 22:00:00 16.1 2 Oeste 11 Sudoeste 0 989.8 -- 100
2020-09-20 21:00:00 17 11 Noroeste 21 Oeste 0 989 -- 99
2020-09-20 20:00:00 18.1 10 Oeste 18 Sudoeste 0 989 -- 88
2020-09-20 19:00:00 18.2 13 Sudoeste 24 Oeste 0 988.7 -- 90
2020-09-20 18:00:00 18.9 15 Sudoeste 30 Oeste 0 988.4 -- 90
2020-09-20 17:00:00 19.7 21 Sudoeste 41 Sudoeste 0 987.9 -- 87
2020-09-20 16:00:00 20.2 23 Oeste 42 Oeste 0 987.5 -- 89
2020-09-20 15:00:00 19.7 18 Oeste 30 Sudoeste 0 987.8 -- 98
2020-09-20 14:00:00 19.9 10 Oeste 21 Oeste 0 987.6 -- 95
2020-09-20 13:00:00 18.9 7 Sudoeste 13 Oeste 0 987.7 -- 100
2020-09-20 12:00:00 17.7 4 Sur 13 Sur 0.1 987.4 -- 100
2020-09-20 11:00:00 16.9 6 Sur 13 Sur 0 986.8 -- 100
2020-09-20 10:00:00 16.6 8 Sur 15 Sur 0.2 986.3 -- 100
2020-09-20 09:00:00 16.8 7 Sur 13 Sur 0 986 -- 100
2020-09-20 08:00:00 16.7 5 Sur 9 Sur 0.4 985.4 -- 100
2020-09-20 07:00:00 16.6 6 Sur 9 Sur 0 984.9 -- 100
2020-09-20 06:00:00 16.6 2 Sudeste 5 Sur 0 984.9 -- 100
2020-09-20 05:00:00 16.7 5 Sur 8 Sudoeste 0 984.7 -- 100
2020-09-20 04:00:00 16.8 5 Sudoeste 11 Sur 0 984.9 -- 100
2020-09-20 03:00:00 17 9 Sur -- -- -- 985.1 -- 100
2020-09-20 02:00:00 17.1 4 Sudoeste 8 Sudoeste 0 985.2 -- 100
2020-09-20 01:00:00 17.2 2 Sudeste 5 Este 0 985.2 -- 100
2020-09-20 00:00:00 17.4 5 Oeste 13 Sur 0 985.3 -- 100
2020-09-19 23:00:00 17.4 9 Sur 15 Sur 0 985.2 -- 100
2020-09-19 22:00:00 17.2 9 Sur 15 Sur 0.1 984.9 -- 100
2020-09-19 21:00:00 17.3 10 Sur 24 Sur 0.1 984.5 -- 100
2020-09-19 20:00:00 19.2 14 Sur 24 Sudeste 0 984.1 -- 79
2020-09-19 19:00:00 20.1 4 Este 18 Nordeste 0 983.6 -- 90
2020-09-19 18:00:00 21 11 Norte 18 Norte 0 983.4 -- 79
2020-09-19 17:00:00 20.9 12 Norte 18 Norte 0 983.5 -- 78
2020-09-19 16:00:00 20.6 8 Nordeste 13 Nordeste 0 983.8 -- 92
2020-09-19 15:00:00 18.9 5 Noroeste 11 Oeste 0.5 984.4 -- 94
2020-09-19 14:00:00 18.5 12 Oeste 22 Sudoeste 0 984.4 -- 99
2020-09-19 13:00:00 19.8 9 Sur 18 Sur 0 984.6 -- 92
2020-09-19 12:00:00 18.7 8 Sur 17 Sur 0 984.2 -- 98
2020-09-19 11:00:00 17 9 Sur 17 Sur 0 983.8 -- 100
2020-09-19 10:00:00 16.4 11 Sur 18 Sur 0 983.1 -- 100
2020-09-19 09:00:00 16.2 10 Sur 15 Sur 0 982.7 -- 100
2020-09-19 08:00:00 16.1 7 Sur 11 Sur 0.2 982 -- 100
2020-09-19 07:00:00 16 8 Sur 9 Sur 3.2 981.4 -- 100
2020-09-19 06:00:00 16.2 5 Sudoeste 13 Sur 6.1 980.9 -- 100
2020-09-19 05:00:00 16.8 10 Sur 15 Sur 0.2 980.5 -- 100
2020-09-19 04:00:00 17.3 8 Sur 15 Sudoeste 0 980 -- 100
2020-09-19 03:00:00 17.6 13 Sudoeste -- -- -- 979.5 -- 94
2020-09-19 02:00:00 17.6 10 Sudoeste 17 Sur 0 979.2 -- 100
2020-09-19 01:00:00 18.1 4 Sudoeste 9 Norte 0 978.8 -- 89
2020-09-19 00:00:00 17.8 7 Norte 17 Norte 0 978.6 -- 95
2020-09-18 23:00:00 18.5 13 Norte 24 Norte 0 978.5 -- 90
2020-09-18 22:00:00 18.4 14 Norte 28 Norte 0 978.3 -- 87
2020-09-18 21:00:00 18.6 13 Norte 21 Norte 0 977.9 -- 91
2020-09-18 20:00:00 19.5 7 Noroeste 21 Sudoeste 0.8 978.2 -- 98
2020-09-18 19:00:00 22.7 9 Norte 13 Norte 0 977.6 -- 60
2020-09-18 18:00:00 24.7 4 Sudeste 17 Este 0 977.4 -- 48
2020-09-18 17:00:00 25.1 2 Oeste 13 Este 0 978 -- 49
2020-09-18 16:00:00 24.7 6 Este 18 Sur 0 978.3 -- 54
2020-09-18 15:00:00 23.5 8 Sur 18 Sudeste 0 979 -- 54
2020-09-18 14:00:00 21.7 10 Sur 21 Sur 0 979.8 -- 68
2020-09-18 13:00:00 21.9 10 Sur 15 Sur 0 980 -- 71
2020-09-18 12:00:00 18.5 4 Sudoeste 9 Sur 0 979.9 -- 97
2020-09-18 11:00:00 17 2 Este 8 Este 0 979.8 -- 100
2020-09-18 10:00:00 16.2 3 Sudoeste 17 Sur 0 979.2 -- 100
2020-09-18 09:00:00 15.6 13 Sur 18 Sur 0 978.9 -- 100
2020-09-18 08:00:00 15.7 10 Sur 18 Sur 0 978.2 -- 100
2020-09-18 07:00:00 16 6 Sur 15 Sur 0 978.5 -- 100
2020-09-18 06:00:00 16.1 5 Sur 15 Sur 0 978.7 -- 100
2020-09-18 05:00:00 16.7 11 Sur 17 Sur 0 978.7 -- 100
2020-09-18 04:00:00 17 10 Sur 21 Sur 0 979 -- 100
2020-09-18 03:00:00 17.1 12 Sur -- -- -- 978.9 -- 100
2020-09-18 02:00:00 17.4 11 Sudoeste 18 Sudoeste 1 979.3 -- 100
2020-09-18 01:00:00 17.3 9 Sudoeste 13 Sudoeste 0 979.3 -- 100
2020-09-18 00:00:00 17.9 2 Norte 11 Norte 0 980 -- 100
2020-09-17 23:00:00 17.7 9 Norte 15 Norte 0 980.1 -- 100
2020-09-17 22:00:00 17.1 8 Norte 13 Norte 0 980.2 -- 100
2020-09-17 21:00:00 17.4 7 Noroeste 18 Oeste 0 979.9 -- 100
2020-09-17 20:00:00 18.4 3 Noroeste 11 Este 0.2 979.3 -- 100
2020-09-17 19:00:00 18 4 Oeste 21 Norte 0.5 979.4 -- 100
2020-09-17 18:00:00 18.3 15 Norte 24 Norte 0.8 979.5 -- 100
2020-09-17 17:00:00 19 17 Sudoeste 32 Sudoeste 19.8 979.1 -- 95
2020-09-17 16:00:00 23.5 7 Norte 15 Nordeste 0 978.9 -- 65
2020-09-17 15:00:00 24.1 12 Norte 22 Nordeste 0 979.4 -- 63
2020-09-17 14:00:00 24.5 5 Este 15 Norte 0 980.5 -- 64
2020-09-17 13:00:00 23.1 8 Nordeste 17 Nordeste 0 981.1 -- 67
2020-09-17 12:00:00 21.2 5 Este 13 Este 0 981.8 -- 74
2020-09-17 11:00:00 19.2 5 Sur 17 Oeste 0 982 -- 87
2020-09-17 10:00:00 18.5 8 Oeste 18 Oeste 0 981.9 -- 93
2020-09-17 09:00:00 17.6 10 Oeste 41 Oeste 0 981.6 -- 89
2020-09-17 08:00:00 17.2 30 Oeste 42 Oeste 0 981.2 -- 94
2020-09-17 07:00:00 17.3 10 Sudoeste 15 Sudoeste 0 980.6 -- 88
2020-09-17 06:00:00 17 10 Sudoeste 15 Sudoeste 0 981.1 -- 91
2020-09-17 05:00:00 16.7 10 Sudoeste 15 Sudoeste 0 981.3 -- 94
2020-09-17 04:00:00 16.5 7 Sudoeste 13 Sudoeste 0 982.3 -- 92
2020-09-17 03:00:00 17 5 Oeste -- -- -- 983.4 -- 87
2020-09-17 02:00:00 17 7 Sudoeste 11 Oeste 0 984.4 -- 88
2020-09-17 01:00:00 17.4 9 Sudoeste 15 Sudoeste 0 984.8 -- 86
2020-09-17 00:00:00 17.5 10 Sudoeste 13 Sudoeste 0 985.2 -- 85
2020-09-16 23:00:00 17.1 8 Oeste 11 Norte 0 985.5 -- 89
2020-09-16 22:00:00 17.6 6 Norte 11 Noroeste 0 985.4 -- 83
2020-09-16 21:00:00 18.4 4 Oeste 35 Oeste 0 985.7 -- 82
2020-09-16 20:00:00 19.8 24 Oeste 39 Oeste 0 985.8 -- 70
2020-09-16 19:00:00 23 19 Oeste 28 Oeste 0 985.3 -- 62
2020-09-16 18:00:00 24.6 8 Noroeste 15 Sudoeste 0 985 -- 60
2020-09-16 17:00:00 25.2 5 Nordeste 15 Nordeste 0 985.5 -- 60
2020-09-16 16:00:00 24.9 11 Nordeste 17 Nordeste 0 986 -- 59
2020-09-16 15:00:00 26.4 9 Nordeste 15 Nordeste 0 986.8 -- 54
2020-09-16 14:00:00 25.4 6 Este 13 Este 0 987.3 -- 54
2020-09-16 13:00:00 24 5 Este 13 Este 0 987.8 -- 63
2020-09-16 12:00:00 22.8 9 Este 13 Sudeste 0 988.1 -- 67
2020-09-16 11:00:00 20.3 5 Sudeste 15 Sudoeste 0 988.1 -- 73
2020-09-16 10:00:00 17.2 7 Sur 13 Sudoeste 0 988 -- 92
2020-09-16 09:00:00 15.9 8 Sudoeste 17 Sudoeste 0 988.1 -- 99
2020-09-16 08:00:00 15.8 9 Sur 13 Sur 0 987.3 -- 98
2020-09-16 07:00:00 15.9 10 Sudoeste 15 Sudoeste 0 987.6 -- 97
2020-09-16 06:00:00 16.2 8 Sudoeste 13 Sur 0 987.8 -- 94
2020-09-16 05:00:00 16.3 4 Oeste 13 Sur 0 988.3 -- 95
2020-09-16 04:00:00 16.9 9 Sudoeste 17 Sudoeste 0 988.7 -- 89
2020-09-16 03:00:00 17.7 10 Sudoeste -- -- -- 989.1 -- 83
2020-09-16 02:00:00 17.3 8 Sudoeste 13 Sur 0 989.4 -- 86
2020-09-16 01:00:00 17.6 9 Sur 13 Sur 0 989.5 -- 85
2020-09-16 00:00:00 18.1 8 Sudoeste 13 Sur 0 989.5 -- 82
2020-09-15 23:00:00 18.4 10 Sur 13 Sur 0 989.6 -- 80
2020-09-15 22:00:00 19.6 8 Sur 13 Sudeste 0 989.3 -- 69
2020-09-15 21:00:00 20.1 3 Sur 18 Sur 0 988.9 -- 67
2020-09-15 20:00:00 22.3 13 Sudoeste 28 Sudoeste 0 989 -- 62
2020-09-15 19:00:00 23.6 17 Sudoeste 28 Sudoeste 0 988.8 -- 59
2020-09-15 18:00:00 24.7 16 Sur 32 Sur 0 988.7 -- 57
2020-09-15 17:00:00 24.7 19 Sudoeste 33 Sudoeste 0 989.1 -- 56
2020-09-15 16:00:00 23.9 14 Sudoeste 30 Sur 0 989.6 -- 61
2020-09-15 15:00:00 23.3 19 Sur 28 Sudoeste 0 990.2 -- 65
2020-09-15 14:00:00 22.4 16 Sur 30 Sur 0 990.2 -- 68
2020-09-15 13:00:00 22.9 14 Sur 30 Sur 0 990.3 -- 68
2020-09-15 12:00:00 20.9 12 Sur 26 Sudoeste 0 990.4 -- 77
2020-09-15 11:00:00 19.9 17 Sur 26 Sur 0 990.1 -- 81
2020-09-15 10:00:00 18.1 10 Sur 18 Sur 0 989.6 -- 93
2020-09-15 09:00:00 17.4 15 Sudoeste 21 Sur 0 989.6 -- 92
2020-09-15 08:00:00 17.8 14 Sur 22 Sur 0 989 -- 88
2020-09-15 07:00:00 17.4 13 Sur 18 Sur 0 988.9 -- 93
2020-09-15 06:00:00 17.5 12 Sur 18 Sur 0 988.8 -- 94
2020-09-15 05:00:00 18.1 11 Sur 21 Sur 0 989.3 -- 91
2020-09-15 04:00:00 17.5 13 Sur 18 Sur 0 989.6 -- 95
2020-09-15 03:00:00 17.2 9 Oeste -- -- -- 989.9 -- 98
2020-09-15 02:00:00 17.8 10 Sur 17 Sur 0 989.7 -- 91
2020-09-15 01:00:00 17.8 9 Sur 15 Sur 0 989.6 -- 94
2020-09-15 00:00:00 17.9 4 Sudoeste 13 Noroeste 0 989.8 -- 86
2020-09-14 23:00:00 18.2 6 Sudoeste 11 Sudoeste 0 989.4 -- 82
2020-09-14 22:00:00 18.5 5 Noroeste 15 Noroeste 0 988.9 -- 86
2020-09-14 21:00:00 20.1 8 Oeste 15 Oeste 0 988.6 -- 75
2020-09-14 20:00:00 22.4 8 Oeste 21 Oeste 0 988.3 -- 66
2020-09-14 19:00:00 23.1 14 Oeste 26 Sudoeste 0 988.1 -- 65
2020-09-14 18:00:00 24.3 15 Oeste 24 Oeste 0 988 -- 63
2020-09-14 17:00:00 25.5 16 Sudoeste 32 Sur 0 988.1 -- 58
2020-09-14 16:00:00 24.6 13 Sudoeste 35 Sur 0 988.5 -- 66
2020-09-14 15:00:00 24.3 17 Sur 30 Sur 0 989 -- 65
2020-09-14 14:00:00 23.3 11 Sur 26 Sur 0 989.2 -- 74
2020-09-14 13:00:00 21 8 Sur 13 Sur 0 989.8 -- 96
2020-09-14 12:00:00 20.3 8 Sur 13 Sur 0 989.8 -- 100
2020-09-14 11:00:00 19.7 4 Sur 9 Sur 0 989.1 -- 100
2020-09-14 10:00:00 18.8 3 Nordeste 5 Norte 0 988.7 -- 100
2020-09-14 09:00:00 18.3 5 Norte 8 Norte 0 988.3 -- 100
2020-09-14 08:00:00 18.4 5 Nordeste 11 Norte 0 987.8 -- 100
2020-09-14 07:00:00 18.5 6 Norte 11 Norte 0.2 987.6 -- 100
2020-09-14 06:00:00 19.1 3 Nordeste 15 Sudoeste 0 987.7 -- 98
2020-09-14 05:00:00 20.3 5 Oeste 15 Sudoeste 0.1 987.6 -- 91
2020-09-14 04:00:00 20.9 10 Sudoeste 17 Sur 0 988.1 -- 72
2020-09-14 03:00:00 21.6 9 Sudoeste -- -- -- 988.5 -- 66
2020-09-14 02:00:00 21.8 6 Sudoeste 13 Sur 0 988.6 -- 62
2020-09-14 01:00:00 21.9 2 Sur 9 Sur 0 988.8 -- 59
2020-09-14 00:00:00 21.9 5 Oeste 9 Sudoeste 0 988.8 -- 60
2020-09-13 23:00:00 21.9 4 Oeste 8 Oeste 0 988.5 -- 61
2020-09-13 22:00:00 22.8 4 Nordeste 21 Oeste 0 987.7 -- 52
2020-09-13 21:00:00 24 12 Oeste 24 Oeste 0 987.1 -- 41
2020-09-13 20:00:00 25.4 4 Nordeste 13 Norte 0 986.7 -- 38
2020-09-13 19:00:00 27.3 3 Este 15 Norte 0 986.8 -- 41
2020-09-13 18:00:00 29 10 Nordeste 21 Norte 0 986.8 -- 39
2020-09-13 17:00:00 30 9 Norte 15 Nordeste 0 987 -- 38
2020-09-13 16:00:00 31.3 8 Nordeste 17 Nordeste 0 987.1 -- 36
2020-09-13 15:00:00 29.6 12 Oeste 28 Sudoeste 0 987.4 -- 38
2020-09-13 14:00:00 31.9 12 Sur 17 Sur 0 987.3 -- 31
2020-09-13 13:00:00 28.9 10 Sudoeste 17 Sudoeste 0 987.4 -- 44
2020-09-13 12:00:00 29.1 10 Sur 22 Sudoeste 0 987.4 -- 39
2020-09-13 11:00:00 24 17 Sudoeste 22 Sur 0 987.1 -- 52
2020-09-13 10:00:00 23.4 17 Sudoeste 22 Sudoeste 0 986.6 -- 49
2020-09-13 09:00:00 23.3 15 Sudoeste 22 Sudoeste 0 986.4 -- 45
2020-09-13 08:00:00 22.3 14 Sudoeste 26 Sur 0 986 -- 51
2020-09-13 07:00:00 25.7 16 Sur 26 Sur 0 986 -- 36
2020-09-13 06:00:00 25.1 12 Sur 22 Sudeste 0 986 -- 43
2020-09-13 05:00:00 23.9 9 Sur 18 Sur 0 986 -- 50
2020-09-13 04:00:00 24.2 7 Sudoeste 15 Sudoeste 0 986.1 -- 50
2020-09-13 03:00:00 24.1 8 Sudoeste -- -- -- 986.4 -- 53
2020-09-13 02:00:00 24.1 3 Sudoeste 13 Este 0 986.6 -- 54
2020-09-13 01:00:00 26.2 9 Este 26 Este 0 986.8 -- 48
2020-09-13 00:00:00 28.3 10 Sudeste 28 Este 0 986.8 -- 37
2020-09-12 23:00:00 28 12 Noroeste 22 Norte 0 986.9 -- 43
2020-09-12 22:00:00 27.9 12 Norte 17 Norte 0 986.3 -- 43
2020-09-12 21:00:00 29.4 9 Norte 15 Norte 0 985.8 -- 38
2020-09-12 20:00:00 31.8 4 Noroeste 13 Noroeste 0 985.8 -- 37
2020-09-12 19:00:00 32.9 5 Norte 15 Oeste 0 985.5 -- 35
2020-09-12 18:00:00 32.6 9 Oeste 18 Noroeste 0 985.5 -- 33
2020-09-12 17:00:00 34.5 11 Noroeste 15 Noroeste 0 985.4 -- 26
2020-09-12 16:00:00 36 6 Sudeste 13 Sudeste 0 985.8 -- 24
2020-09-12 15:00:00 34.6 5 Este 11 Este 0 986.1 -- 35
2020-09-12 14:00:00 31.3 5 Sur 13 Sur 0 986.5 -- 43
2020-09-12 13:00:00 28.2 8 Sur 15 Sur 0 986.7 -- 51
2020-09-12 12:00:00 25.6 9 Sur 17 Sur 0 986.4 -- 58
2020-09-12 11:00:00 20.8 13 Sudoeste 21 Sudoeste 0 985.9 -- 76
2020-09-12 10:00:00 19.5 11 Sudoeste 21 Sur 0 985.7 -- 79
2020-09-12 09:00:00 18.2 12 Sudoeste 21 Oeste 0 985.4 -- 85
2020-09-12 08:00:00 18.2 13 Sudoeste 18 Sudoeste 0 984.9 -- 85
2020-09-12 07:00:00 19.1 10 Sudoeste 15 Sudoeste 0 984.7 -- 74
2020-09-12 06:00:00 20.1 9 Sudoeste 15 Sur 0 984.6 -- 67
2020-09-12 05:00:00 20.2 6 Sudoeste 11 Oeste 0 984.6 -- 64
2020-09-12 04:00:00 19.9 4 Sudoeste 9 Oeste 0 984.6 -- 67
2020-09-12 03:00:00 20.5 4 Sudoeste -- -- -- 984.7 -- 67
2020-09-12 02:00:00 21.3 4 Nordeste 9 Oeste 0 984.7 -- 61
2020-09-12 01:00:00 21.5 2 Sudoeste 9 Norte 0 984.9 -- 58
2020-09-12 00:00:00 22.7 8 Norte 15 Norte 0 984.7 -- 54
2020-09-11 23:00:00 22.1 4 Norte 13 Norte 0 984.7 -- 53
2020-09-11 22:00:00 23.4 7 Norte 13 Noroeste 0 984.3 -- 51
2020-09-11 21:00:00 24.4 4 Norte 11 Norte 0 983.8 -- 50
2020-09-11 20:00:00 25 6 Norte 11 Norte 0 983.7 -- 58
2020-09-11 19:00:00 27.4 8 Sudoeste 18 Oeste 0 983.8 -- 49
2020-09-11 18:00:00 29.1 10 Oeste 21 Oeste 0 983.9 -- 44
2020-09-11 17:00:00 29.3 14 Oeste 22 Oeste 0 984.1 -- 43
2020-09-11 16:00:00 30.5 5 Sudoeste 17 Sur 0 984.3 -- 42
2020-09-11 15:00:00 29.6 7 Nordeste 17 Sur 0 984.5 -- 47
2020-09-11 14:00:00 28.3 9 Sudoeste 32 Oeste 0 984.7 -- 47
2020-09-11 13:00:00 28.7 5 Sur 15 Sur 0 984.9 -- 48
2020-09-11 12:00:00 24.3 8 Sur 15 Sur 0 984.7 -- 61
2020-09-11 11:00:00 21.3 9 Sur 17 Sur 0 984.3 -- 71
2020-09-11 10:00:00 19.4 12 Sur 18 Sur 0 984.5 -- 78
2020-09-11 09:00:00 17.8 9 Sudoeste 15 Sudoeste 0 984.2 -- 87
2020-09-11 08:00:00 17.6 12 Sudoeste 18 Sur 0 984 -- 88
2020-09-11 07:00:00 18 10 Sudoeste 17 Sudoeste 0 983.9 -- 83
2020-09-11 06:00:00 19.3 13 Sudoeste 17 Sudoeste 0 984.1 -- 73
2020-09-11 05:00:00 20.1 13 Sudoeste 18 Sudoeste 0 984.4 -- 69
2020-09-11 04:00:00 21 12 Sudoeste 18 Sudoeste 0 984.5 -- 65
2020-09-11 03:00:00 22 10 Sudoeste -- -- -- 985 -- 63
2020-09-11 02:00:00 20.7 5 Sudoeste 11 Sudoeste 0 985.4 -- 69
2020-09-11 01:00:00 20.3 2 Noroeste 11 Noroeste 0 985.8 -- 72
2020-09-11 00:00:00 21.4 3 Noroeste 13 Norte 0 986.1 -- 70
2020-09-10 23:00:00 20.8 10 Norte 13 Norte 0 986.3 -- 67
2020-09-10 22:00:00 21.6 10 Norte 13 Norte 0 986.2 -- 60
2020-09-10 21:00:00 22.4 7 Norte 15 Noroeste 0 986.1 -- 64
2020-09-10 20:00:00 24.8 5 Norte 17 Oeste 0 986.3 -- 56
2020-09-10 19:00:00 26.2 12 Oeste 22 Oeste 0 986.7 -- 47
2020-09-10 18:00:00 26.8 16 Oeste 22 Oeste 0 987 -- 43
2020-09-10 17:00:00 29.1 12 Oeste 18 Oeste 0 987.3 -- 41
2020-09-10 16:00:00 29.8 8 Oeste 22 Noroeste 0 988.1 -- 40
2020-09-10 15:00:00 29.5 12 Oeste 21 Oeste 0 988.5 -- 39
2020-09-10 14:00:00 28.7 4 Sudeste 17 Sudoeste 0 989 -- 40
2020-09-10 13:00:00 26.6 5 Sur 11 Sur 0 989.4 -- 50
2020-09-10 12:00:00 23.9 7 Sur 21 Sur 0 989.7 -- 58
2020-09-10 11:00:00 20.8 12 Sur 18 Sur 0 989.7 -- 70
2020-09-10 10:00:00 19 8 Sur 13 Sur 0 989.5 -- 80
2020-09-10 09:00:00 16.4 4 Sur 21 Sur 0 989.4 -- 93
2020-09-10 08:00:00 15.9 14 Sudoeste 21 Sur 0 989.1 -- 89
2020-09-10 07:00:00 16.8 13 Sudoeste 17 Sudoeste 0 988.6 -- 80
2020-09-10 06:00:00 17.5 10 Sudoeste 15 Sudoeste 0 988.6 -- 72
2020-09-10 05:00:00 18.4 11 Sudoeste 17 Sudoeste 0 989 -- 61
2020-09-10 04:00:00 19.6 4 Sudoeste 13 Sur 0 989.2 -- 51
2020-09-10 03:00:00 19.9 4 Oeste 9 Sudoeste 0 989.6 -- 50
2020-09-10 02:00:00 19.2 6 Sudoeste 9 Sudoeste 0 990 -- 61
2020-09-10 01:00:00 20.2 2 Oeste 9 Norte 0 990.3 -- 47
2020-09-10 00:00:00 21 9 Norte 11 Norte 0 990.5 -- 40
2020-09-09 23:00:00 21.1 7 Norte 9 Norte 0 990.7 -- 45
2020-09-09 22:00:00 20.9 5 Norte 9 Norte 0 990.4 -- 45
2020-09-09 21:00:00 23.9 5 Norte 17 Noroeste 0 989.8 -- 29
2020-09-09 20:00:00 25.9 8 Oeste 22 Oeste 0 989.6 -- 31
2020-09-09 19:00:00 26.9 17 Oeste 30 Oeste 0 989.6 -- 29
2020-09-09 18:00:00 27.7 19 Oeste 30 Oeste 0 989.7 -- 27
2020-09-09 17:00:00 28.5 19 Oeste 28 Oeste 0 989.8 -- 28
2020-09-09 16:00:00 29.2 16 Oeste 26 Oeste 0 989.8 -- 30
2020-09-09 15:00:00 30.5 11 Sudoeste 15 Sudoeste 0 990 -- 29
2020-09-09 14:00:00 29.8 7 Sur 17 Sur 0 990.5 -- 31
2020-09-09 13:00:00 26.9 8 Sur 15 Sur 0 990.7 -- 43
2020-09-09 12:00:00 23.4 10 Sur 18 Sur 0 990.7 -- 54
2020-09-09 11:00:00 20.2 13 Sur 21 Sur 0 990.6 -- 60
2020-09-09 10:00:00 17.8 14 Sur 22 Sudoeste 0 990.2 -- 68
2020-09-09 09:00:00 16.6 12 Sudoeste 22 Sur 0 989.8 -- 70
2020-09-09 08:00:00 16.3 16 Sudoeste 22 Sur 0 989.2 -- 69
2020-09-09 07:00:00 16.4 13 Sudoeste 18 Sudoeste 0 988.8 -- 68
2020-09-09 06:00:00 17.7 14 Sudoeste 18 Sudoeste 0 988.7 -- 62
2020-09-09 05:00:00 17.8 9 Sudoeste 13 Sudoeste 0 988.8 -- 61
2020-09-09 04:00:00 19 4 Sudoeste 13 Sudoeste 0 989 -- 58
2020-09-09 03:00:00 19.2 9 Sudoeste 13 Sudoeste 0 989.1 -- 55
2020-09-09 02:00:00 17.9 8 Sudoeste 11 Sudoeste 0 989.4 -- 63
2020-09-09 01:00:00 19.1 4 Oeste 13 Norte 0 989.6 -- 57
2020-09-09 00:00:00 20 9 Norte 13 Norte 0 989.7 -- 54
2020-09-08 23:00:00 19.3 8 Noroeste 11 Norte 0 989.9 -- 57
2020-09-08 22:00:00 20.4 6 Norte 15 Oeste 0 989.5 -- 48
2020-09-08 21:00:00 22.3 9 Oeste 22 Oeste 0 989.2 -- 41
2020-09-08 20:00:00 23.9 14 Oeste 24 Oeste 0 988.9 -- 42
2020-09-08 19:00:00 25.7 18 Oeste 28 Sudoeste 0 988.8 -- 37
2020-09-08 18:00:00 27.2 17 Oeste 26 Oeste 0 988.8 -- 33
2020-09-08 17:00:00 27.2 21 Oeste 28 Sudoeste 0 989.2 -- 31
2020-09-08 16:00:00 30.4 4 Este 15 Oeste 0 989.5 -- 24
2020-09-08 15:00:00 28.9 6 Sur 15 Sur 0 989.9 -- 29
2020-09-08 14:00:00 27.4 3 Sur 11 Este 0 990.3 -- 31
2020-09-08 13:00:00 25.2 4 Sudeste 17 Sur 0 990.8 -- 36
2020-09-08 12:00:00 22.3 9 Sur 21 Sudoeste 0 991 -- 42
2020-09-08 11:00:00 20.1 11 Sur 24 Sur 0 990.9 -- 47
2020-09-08 10:00:00 17.4 16 Sur 22 Sur 0 990.5 -- 56
2020-09-08 09:00:00 15.5 10 Sudoeste 17 Sudoeste 0 990.3 -- 69
2020-09-08 08:00:00 15.3 11 Sudoeste 17 Sur 0 989.8 -- 74
2020-09-08 07:00:00 16.1 10 Sudoeste 17 Sudoeste 0 989.8 -- 76
2020-09-08 06:00:00 16.3 10 Sudoeste 17 Sudoeste 0 989.7 -- 81
2020-09-08 05:00:00 17.4 8 Sudoeste 15 Sudoeste 0 989.7 -- 76
2020-09-08 04:00:00 17.8 4 Oeste 17 Sudoeste 0 989.8 -- 73
2020-09-08 03:00:00 18.6 9 Sudoeste 17 Sur 0 989.7 -- 70
2020-09-08 02:00:00 21.1 7 Sudeste 18 Este 0 989.7 -- 53
2020-09-08 01:00:00 21.4 11 Este 32 Este 0 989.6 -- 55
2020-09-08 00:00:00 23.1 13 Nordeste 35 Este 0 989.4 -- 49
2020-09-07 23:00:00 21.6 14 Nordeste 24 Nordeste 0 989.3 -- 61
2020-09-07 22:00:00 22 12 Norte 22 Nordeste 0 988.9 -- 61
2020-09-07 21:00:00 23.7 11 Nordeste 24 Norte 0 988.3 -- 55
2020-09-07 20:00:00 27.4 13 Norte 18 Norte 0 988.1 -- 38
2020-09-07 19:00:00 28.6 10 Norte 22 Norte 0 988.1 -- 34
2020-09-07 18:00:00 28.6 10 Norte 21 Norte 0 988.2 -- 36
2020-09-07 17:00:00 28.4 12 Norte 21 Norte 0 988.5 -- 36
2020-09-07 16:00:00 28.5 11 Nordeste 28 Nordeste 0 989.1 -- 38
2020-09-07 15:00:00 28.8 7 Nordeste 24 Este 0 989.2 -- 38
2020-09-07 14:00:00 27.4 6 Este 17 Este 0 989.5 -- 38
2020-09-07 13:00:00 24.3 6 Norte 15 Norte 0 989.6 -- 46
2020-09-07 12:00:00 24 6 Sudeste 15 Sudeste 0 989.6 -- 50
2020-09-07 11:00:00 20.7 5 Sudeste 11 Sur 0 989.3 -- 61
2020-09-07 10:00:00 16.4 9 Sur 15 Sur 0 988.9 -- 75
2020-09-07 09:00:00 14.4 8 Sur 17 Sudoeste 0 988.4 -- 84
2020-09-07 08:00:00 14.1 6 Sudoeste 24 Sur 0 988.2 -- 86
2020-09-07 07:00:00 14 11 Sur 22 Sur 0 987.7 -- 86
2020-09-07 06:00:00 14.7 14 Sur 21 Sur 0 987.5 -- 81
2020-09-07 05:00:00 15 4 Sudeste 13 Sur 0 987.5 -- 77
2020-09-07 04:00:00 14.1 3 Sudoeste 9 Sudeste 0 987.7 -- 79
2020-09-07 03:00:00 14.6 3 Este 8 Nordeste 0 988 -- 76
2020-09-07 02:00:00 15 3 Sudeste 8 Este 0 987.9 -- 77
2020-09-07 01:00:00 15.4 3 Este 22 Norte 0 987.8 -- 76
2020-09-07 00:00:00 16.9 3 Nordeste 26 Norte 0 987.4 -- 69
2020-09-06 23:00:00 18.7 18 Norte 28 Norte 0 987.6 -- 60
2020-09-06 22:00:00 19.9 18 Norte 35 Norte 0 987.2 -- 60
2020-09-06 21:00:00 21.1 14 Norte 30 Norte 0 986.5 -- 60
2020-09-06 20:00:00 24 10 Nordeste 32 Norte 0 986.5 -- 54
2020-09-06 19:00:00 26.5 19 Norte 30 Norte 0 986.2 -- 48
2020-09-06 18:00:00 27.3 12 Norte 30 Norte 0 986.4 -- 48
2020-09-06 17:00:00 28.5 11 Nordeste 21 Nordeste 0 986.6 -- 48
2020-09-06 16:00:00 28.9 9 Nordeste 18 Nordeste 0 987 -- 48
2020-09-06 15:00:00 28 12 Nordeste 22 Nordeste 0 987.4 -- 50
2020-09-06 14:00:00 27 8 Nordeste 18 Nordeste 0 987.7 -- 52
2020-09-06 13:00:00 26.3 10 Este 18 Este 0 987.9 -- 55
2020-09-06 12:00:00 24.5 9 Este 18 Este 0 988 -- 59
2020-09-06 11:00:00 21.2 8 Nordeste 17 Este 0 987.9 -- 68
2020-09-06 10:00:00 19.2 7 Este 15 Este 0 988 -- 77
2020-09-06 09:00:00 15.9 5 Este 11 Norte 0 987.5 -- 96
2020-09-06 08:00:00 14.7 3 Este 11 Este 0 987.2 -- 100
2020-09-06 07:00:00 15.1 5 Este 13 Nordeste 0 987.1 -- 96
2020-09-06 06:00:00 16.1 4 Nordeste 11 Nordeste 0 987.2 -- 89
2020-09-06 05:00:00 16.3 4 Este 28 Norte 0 987.5 -- 89
2020-09-06 04:00:00 17.1 17 Norte 28 Norte 0 987.7 -- 84
2020-09-06 03:00:00 17 4 Este 24 Norte 0 988 -- 83
2020-09-06 02:00:00 17.5 12 Norte 30 Norte 0 988.5 -- 82
2020-09-06 01:00:00 18 21 Norte 33 Norte 0 988.5 -- 80
2020-09-06 00:00:00 18.6 18 Norte 33 Norte 0 988.5 -- 77
2020-09-05 23:00:00 19.4 19 Norte 37 Norte 0 988.5 -- 74
2020-09-05 22:00:00 20.7 21 Norte 45 Norte 0 988 -- 70
2020-09-05 21:00:00 22.4 26 Norte 39 Norte 0 987.6 -- 66
2020-09-05 20:00:00 24.6 24 Norte 35 Norte 0 987.6 -- 58
2020-09-05 19:00:00 26.2 26 Norte 39 Norte 0 987.6 -- 54
2020-09-05 18:00:00 27.8 22 Norte 33 Norte 0 987.7 -- 51
2020-09-05 17:00:00 28.3 20 Norte 32 Norte 0 988.1 -- 52
2020-09-05 16:00:00 28.7 13 Norte 24 Norte 0 988.9 -- 52
2020-09-05 15:00:00 29 10 Nordeste 22 Nordeste 0 989.6 -- 53
2020-09-05 14:00:00 27.7 10 Nordeste 21 Nordeste 0 990 -- 55
2020-09-05 13:00:00 26.3 12 Nordeste 21 Nordeste 0 990.3 -- 59
2020-09-05 12:00:00 25.1 9 Este 15 Nordeste 0 990.3 -- 65
2020-09-05 11:00:00 22.4 6 Este 11 Este 0 990.4 -- 79
2020-09-05 10:00:00 19.3 4 Este 9 Este 0 990.4 -- 95
2020-09-05 09:00:00 16.2 4 Este 8 Nordeste 0 990.3 -- 100
2020-09-05 08:00:00 15.2 3 Este 11 Norte 0 989.9 -- 100
2020-09-05 07:00:00 15.3 6 Nordeste 17 Norte 0 989.8 -- 100
2020-09-05 06:00:00 15 10 Nordeste 18 Norte 0 989.7 -- 100
2020-09-05 05:00:00 15.6 10 Nordeste 17 Nordeste 0 989.9 -- 100
2020-09-05 04:00:00 15.9 11 Norte 17 Norte 0 990.4 -- 100
2020-09-05 03:00:00 16.2 8 Nordeste 13 Nordeste 0 990.6 -- 100
2020-09-05 02:00:00 15.9 9 Nordeste 13 Norte 0 990.9 -- 100
2020-09-05 01:00:00 15.8 7 Nordeste 17 Norte 0 991 -- 100
2020-09-05 00:00:00 16.6 13 Norte 21 Norte 0 990.9 -- 100
2020-09-04 23:00:00 16.9 11 Norte 18 Norte 0 991.2 -- 100
2020-09-04 22:00:00 17.6 10 Norte 24 Noroeste 0 991.1 -- 100
2020-09-04 21:00:00 19.4 6 Norte 22 Oeste 0 990.7 -- 90
2020-09-04 20:00:00 21.6 8 Norte 13 Norte 0 990.6 -- 74
2020-09-04 19:00:00 23.5 6 Norte 28 Oeste 0 990.8 -- 56
2020-09-04 18:00:00 22.4 13 Oeste 28 Oeste 0 990.8 -- 70
2020-09-04 17:00:00 25.5 13 Oeste 21 Oeste 0 990.6 -- 56
2020-09-04 16:00:00 27.1 6 Sudoeste 21 Oeste 0 990.9 -- 51
2020-09-04 15:00:00 24.9 13 Oeste 26 Sudoeste 0 991.2 -- 57
2020-09-04 14:00:00 27.5 8 Sudoeste 17 Sudoeste 0 991.4 -- 52
2020-09-04 13:00:00 26.5 7 Nordeste 13 Nordeste 0 991.3 -- 55
2020-09-04 12:00:00 25.6 5 Nordeste 13 Nordeste 0 991.3 -- 56
2020-09-04 11:00:00 24.4 5 Este 9 Sudeste 0 990.9 -- 59
2020-09-04 10:00:00 21.2 5 Oeste 13 Sudoeste 0 990.4 -- 68
2020-09-04 09:00:00 19.3 9 Sudoeste 18 Sudoeste 0 989.7 -- 76
2020-09-04 08:00:00 19.1 14 Sudoeste 22 Sudoeste 0 989.3 -- 73
2020-09-04 07:00:00 20 15 Sudoeste 21 Sudoeste 0 989 -- 67
2020-09-04 06:00:00 20.7 14 Sudoeste 22 Sudoeste 0 989.1 -- 63
2020-09-04 05:00:00 21.8 13 Sudoeste 18 Sudoeste 0 989.3 -- 58
2020-09-04 04:00:00 22.1 10 Sudoeste 18 Sudoeste 0 989.5 -- 57
2020-09-04 03:00:00 21.5 12 Sudoeste 17 Sudoeste 0 989.8 -- 62
2020-09-04 02:00:00 20.5 6 Sudoeste 9 Sudoeste 0 990 -- 69
2020-09-04 01:00:00 20.5 5 Sudoeste 9 Noroeste 0 990.1 -- 72
2020-09-04 00:00:00 23.2 9 Noroeste 13 Norte 0 990.1 -- 60
2020-09-03 23:00:00 22.2 10 Norte 13 Norte 0 990 -- 62
2020-09-03 22:00:00 22.4 5 Noroeste 15 Noroeste 0 989.8 -- 64
2020-09-03 21:00:00 23.7 8 Noroeste 17 Oeste 0 989.3 -- 62
2020-09-03 20:00:00 28.4 4 Noroeste 15 Oeste 0 989.1 -- 46
2020-09-03 19:00:00 28.6 12 Oeste 22 Oeste 0 989.1 -- 41
2020-09-03 18:00:00 29.5 11 Sudoeste 21 Sudoeste 0 989 -- 39
2020-09-03 17:00:00 30.8 6 Nordeste 17 Nordeste 0 989.1 -- 41
2020-09-03 16:00:00 30.7 9 Nordeste 17 Norte 0 989.5 -- 42
2020-09-03 15:00:00 30.6 9 Nordeste 17 Nordeste 0 989.8 -- 43
2020-09-03 14:00:00 29.2 7 Nordeste 15 Norte 0 990.1 -- 45
2020-09-03 13:00:00 28.9 6 Este 13 Este 0 990.1 -- 54
2020-09-03 12:00:00 25.3 5 Sur 15 Sudoeste 0 990 -- 63
2020-09-03 11:00:00 20.9 8 Sur 18 Sur 0 989.5 -- 78
2020-09-03 10:00:00 18.6 14 Sur 18 Sur 0 989 -- 87
2020-09-03 09:00:00 17.4 13 Sudoeste 21 Sudoeste 0 988.6 -- 95
2020-09-03 08:00:00 17.1 13 Sudoeste 18 Sudoeste 0 988.1 -- 97
2020-09-03 07:00:00 17.1 12 Sudoeste 17 Sudoeste 0 987.8 -- 97
2020-09-03 06:00:00 18 10 Sudoeste 13 Sur 0 987.6 -- 92
2020-09-03 05:00:00 17.9 5 Sudoeste 9 Sudoeste 0 987.7 -- 93
2020-09-03 04:00:00 18.6 3 Sudoeste 9 Sur 0 987.6 -- 90
2020-09-03 03:00:00 18.2 0 Calma 5 Norte 0 987.7 -- 94
2020-09-03 02:00:00 19.5 3 Sudoeste 9 Sur 0 987.7 -- 87
2020-09-03 01:00:00 19.1 3 Nordeste 9 Sudoeste 0 987.9 -- 90
2020-09-03 00:00:00 19.4 5 Norte 9 Nordeste 0 987.8 -- 90
2020-09-02 23:00:00 19.8 9 Norte 18 Norte 0 988 -- 86
2020-09-02 22:00:00 21.6 13 Norte 18 Norte 0 987.5 -- 73
2020-09-02 21:00:00 23.5 9 Norte 13 Norte 0 987.1 -- 61
2020-09-02 20:00:00 25.7 7 Norte 17 Norte 0 986.9 -- 54
2020-09-02 19:00:00 26.8 9 Norte 18 Nordeste 0 986.6 -- 51
2020-09-02 18:00:00 27.3 9 Noroeste 17 Norte 0 986.7 -- 52
2020-09-02 17:00:00 26.4 14 Oeste 24 Sudoeste 0 986.7 -- 53
2020-09-02 16:00:00 27.3 7 Sur 21 Sudoeste 0 987.1 -- 48
2020-09-02 15:00:00 27.3 5 Este 15 Sur 0 987.1 -- 49
2020-09-02 14:00:00 25.3 5 Sudeste 13 Sudeste 0 987.2 -- 54
2020-09-02 13:00:00 23.2 8 Sur 17 Sur 0 987.4 -- 59
2020-09-02 12:00:00 20.7 8 Sudeste 17 Sudeste 0 987.3 -- 67
2020-09-02 11:00:00 17.8 9 Sur 18 Sur 0 987.2 -- 78
2020-09-02 10:00:00 15.7 10 Sur 18 Sur 0 986.7 -- 88
2020-09-02 09:00:00 14 3 Este 8 Oeste 0 986.9 -- 99
2020-09-02 08:00:00 12 0 Calma 8 Este 0 986.6 -- 100
2020-09-02 07:00:00 12.7 6 Norte 13 Norte 0 986 -- 100
2020-09-02 06:00:00 12.8 10 Norte 15 Norte 0 985.6 -- 100
2020-09-02 05:00:00 13.4 7 Norte 11 Norte 0 985.5 -- 98
2020-09-02 04:00:00 13.7 8 Nordeste 15 Norte 0 985.6 -- 95
2020-09-02 03:00:00 14.9 11 Norte 18 Norte 0 985.5 -- 84
2020-09-02 02:00:00 15.5 9 Norte 21 Norte 0 986 -- 81
2020-09-02 01:00:00 16.8 13 Norte 26 Norte 0 986.1 -- 72
2020-09-02 00:00:00 17.8 15 Norte 32 Norte 0 986.1 -- 73
2020-09-01 23:00:00 18.6 19 Norte 32 Norte 0 985.7 -- 82
2020-09-01 22:00:00 19.5 22 Norte 39 Norte 0 985.5 -- 76
2020-09-01 21:00:00 21.1 25 Norte 39 Norte 0 984.8 -- 69
2020-09-01 20:00:00 23.4 19 Norte 30 Norte 0 984.6 -- 56
2020-09-01 19:00:00 23.9 15 Oeste 28 Oeste 0 984.4 -- 50
2020-09-01 18:00:00 23.7 14 Noroeste 28 Oeste 0 984.5 -- 54
2020-09-01 17:00:00 23 16 Oeste 28 Oeste 0 984.7 -- 57
2020-09-01 16:00:00 23.1 14 Oeste 26 Oeste 0 985.2 -- 56
2020-09-01 15:00:00 23.6 9 Noroeste 22 Noroeste 0 985.5 -- 51
2020-09-01 14:00:00 23 13 Norte 26 Noroeste 0 986 -- 49
2020-09-01 13:00:00 22.4 11 Nordeste 22 Nordeste 0 986.3 -- 56
2020-09-01 12:00:00 20.8 12 Nordeste 21 Norte 0 986.5 -- 60
2020-09-01 11:00:00 18.6 8 Nordeste 17 Nordeste 0 986.4 -- 67
2020-09-01 10:00:00 16.7 10 Nordeste 18 Norte 0 986.2 -- 76
2020-09-01 09:00:00 14 6 Norte 13 Norte 0 986.1 -- 90
2020-09-01 08:00:00 12.8 6 Oeste 11 Norte 0 986.2 -- 92
2020-09-01 07:00:00 13.7 6 Oeste 9 Oeste 0 985.8 -- 85
2020-09-01 06:00:00 14.2 5 Norte 11 Norte 0 985.8 -- 83
2020-09-01 05:00:00 13.9 4 Norte 13 Norte 0 985.9 -- 82
2020-09-01 04:00:00 15.2 8 Norte 17 Noroeste 0 986.3 -- 67
2020-09-01 03:00:00 14.8 8 Oeste 17 Noroeste 0 987.1 -- 83
2020-09-01 02:00:00 14.9 6 Oeste 15 Norte 0 986.7 -- 87
2020-09-01 01:00:00 15.3 9 Norte 13 Norte 0 987.1 -- 69
2020-09-01 00:00:00 15 5 Noroeste 30 Oeste 0 987.3 -- 94
2020-08-31 23:00:00 15.3 11 Oeste 17 Oeste 0 987.7 -- 80
2020-08-31 22:00:00 16 12 Oeste 33 Oeste 0 987.5 -- 71
2020-08-31 21:00:00 17.9 6 Norte 15 Noroeste 0 987.2 -- 49
2020-08-31 20:00:00 19.2 6 Noroeste 21 Oeste 0 987.1 -- 46
2020-08-31 19:00:00 20.7 14 Oeste 22 Oeste 0 987.1 -- 42
2020-08-31 18:00:00 22.4 10 Oeste 22 Oeste 0 987.3 -- 39
2020-08-31 17:00:00 21.4 14 Oeste 22 Oeste 0 987.9 -- 40
2020-08-31 16:00:00 21.5 13 Oeste 24 Oeste 0 988.4 -- 41
2020-08-31 15:00:00 21.8 15 Oeste 28 Oeste 0 988.9 -- 45
2020-08-31 14:00:00 22.3 20 Oeste 28 Oeste 0 989.1 -- 44
2020-08-31 13:00:00 22.7 7 Sudeste 15 Sur 0 988.8 -- 47
2020-08-31 12:00:00 19.3 9 Sur 17 Sudoeste 0 989 -- 56
2020-08-31 11:00:00 16.1 12 Sudoeste 18 Sur 0 988.5 -- 71
2020-08-31 10:00:00 13.2 15 Sudoeste 24 Sur 0 988.5 -- 84
2020-08-31 09:00:00 11.6 14 Sudoeste 22 Sur 0 988 -- 94
2020-08-31 08:00:00 11 10 Sudoeste 17 Sudoeste 0 987.7 -- 96
2020-08-31 07:00:00 11.3 12 Sudoeste 18 Sudoeste 0 987.4 -- 94
2020-08-31 06:00:00 11.9 11 Sudoeste 21 Sur 0 987.3 -- 90
2020-08-31 05:00:00 12 7 Sudoeste 17 Sur 0 987.6 -- 90
2020-08-31 04:00:00 12.5 5 Sudoeste 9 Sur 0 987.9 -- 85
2020-08-31 03:00:00 12.7 0 Calma 8 Sudoeste 0 988.4 -- 82
2020-08-31 02:00:00 13.1 4 Sudoeste 18 Norte 0 988.5 -- 81
2020-08-31 01:00:00 14.3 12 Norte 18 Norte 0 988.8 -- 72
2020-08-31 00:00:00 15.1 14 Norte 26 Norte 0 989 -- 70
2020-08-30 23:00:00 16.3 19 Norte 32 Norte 0 988.5 -- 68
2020-08-30 22:00:00 17 19 Norte 35 Norte 0 988 -- 69
2020-08-30 21:00:00 18.5 19 Norte 33 Norte 0 987.4 -- 59
2020-08-30 20:00:00 20.1 20 Norte 37 Norte 0 987 -- 55
2020-08-30 19:00:00 21.5 22 Norte 35 Norte 0 986.7 -- 46
2020-08-30 18:00:00 22.3 21 Norte 30 Norte 0 986.8 -- 43
2020-08-30 17:00:00 22.4 17 Norte 28 Norte 0 987 -- 39
2020-08-30 16:00:00 24 12 Nordeste 32 Norte 0 987.7 -- 35
2020-08-30 15:00:00 23.4 16 Este 32 Este 0 988 -- 38
2020-08-30 14:00:00 21.7 13 Nordeste 32 Norte 0 988.3 -- 39
2020-08-30 13:00:00 20.6 11 Nordeste 24 Nordeste 0 988.5 -- 48
2020-08-30 12:00:00 18.9 10 Nordeste 18 Nordeste 0 988.8 -- 56
2020-08-30 11:00:00 17.5 8 Nordeste 15 Nordeste 0 988.3 -- 59
2020-08-30 10:00:00 16 9 Nordeste 21 Nordeste 0 988.2 -- 63
2020-08-30 09:00:00 13.9 13 Nordeste 24 Norte 0 987.9 -- 71
2020-08-30 08:00:00 11.6 14 Norte 17 Norte 0 987.9 -- 93
2020-08-30 07:00:00 11.1 14 Norte 21 Norte 0 987.8 -- 98
2020-08-30 06:00:00 10.9 9 Nordeste 18 Norte 0 987.6 -- 100
2020-08-30 05:00:00 11.7 13 Norte 17 Norte 0 987.7 -- 98
2020-08-30 04:00:00 12.2 12 Norte 21 Norte 0 987.9 -- 97
2020-08-30 03:00:00 12.6 13 Norte 17 Norte 0 988 -- 90
2020-08-30 02:00:00 12.3 7 Este 26 Nordeste 0 988 -- 97
2020-08-30 01:00:00 13.5 15 Norte 24 Norte 0 987.7 -- 86
2020-08-30 00:00:00 14.1 16 Norte 33 Norte 0 987.4 -- 82
2020-08-29 23:00:00 15.1 22 Norte 37 Norte 0 987.5 -- 71
2020-08-29 22:00:00 16.1 21 Norte 37 Norte 0 986.5 -- 61
2020-08-29 21:00:00 17.3 23 Norte 41 Norte 0 985.9 -- 59
2020-08-29 20:00:00 19 17 Norte 41 Norte 0 985.6 -- 55
2020-08-29 19:00:00 19.7 26 Norte 50 Norte 0 985.4 -- 51
2020-08-29 18:00:00 18.7 25 Norte 46 Norte 0 985.4 -- 55
2020-08-29 17:00:00 20 31 Norte 52 Noroeste 0 985.4 -- 53
2020-08-29 16:00:00 21.4 22 Norte 37 Norte 0 985.2 -- 51
2020-08-29 15:00:00 20.7 27 Norte 39 Norte 0 985.4 -- 59
2020-08-29 14:00:00 18.9 20 Norte 41 Norte 0 985.5 -- 66
2020-08-29 13:00:00 19.6 17 Norte 33 Norte 0 985.4 -- 64
2020-08-29 12:00:00 18.7 16 Norte 28 Norte 0 985.3 -- 69
2020-08-29 11:00:00 16.7 15 Norte 28 Nordeste 0 985.2 -- 83
2020-08-29 10:00:00 14.9 8 Norte 15 Norte 0 985 -- 99
2020-08-29 09:00:00 13.2 7 Norte 9 Norte 0 984.8 -- 100
2020-08-29 08:00:00 12.5 2 Noroeste 4 Oeste 0 984.3 -- 100
2020-08-29 07:00:00 12.6 2 Noroeste 5 Norte 0 984.1 -- 100
2020-08-29 06:00:00 13.4 4 Norte 8 Norte 0 984 -- 100
2020-08-29 05:00:00 13.1 4 Noroeste 8 Noroeste 0 984.2 -- 100
2020-08-29 04:00:00 13.3 5 Noroeste 11 Noroeste 0 984.3 -- 100
2020-08-29 03:00:00 13.4 7 Noroeste 11 Noroeste 0 984.8 -- 99
2020-08-29 02:00:00 15 5 Norte 8 Norte 0 985 -- 90
2020-08-29 01:00:00 14.8 0 Calma 9 Norte 0 985.3 -- 88
2020-08-29 00:00:00 14.9 8 Noroeste 15 Noroeste 0 985.4 -- 84
2020-08-28 23:00:00 14.9 9 Noroeste 17 Norte 0 985.4 -- 87
2020-08-28 22:00:00 16 9 Noroeste 24 Noroeste 0 985.1 -- 82
2020-08-28 21:00:00 17.2 16 Noroeste 37 Noroeste 0 984.8 -- 69
2020-08-28 20:00:00 18.3 17 Noroeste 35 Norte 0 984.6 -- 68
2020-08-28 19:00:00 18.9 20 Noroeste 33 Noroeste 0 984.7 -- 68
2020-08-28 18:00:00 18.9 23 Noroeste 37 Noroeste 0 984.9 -- 64
2020-08-28 17:00:00 19.4 19 Oeste 41 Noroeste 0 985.1 -- 67
2020-08-28 16:00:00 19.9 22 Noroeste 35 Noroeste 0 985.4 -- 62
2020-08-28 15:00:00 19.7 21 Noroeste 39 Oeste 0 985.9 -- 63
2020-08-28 14:00:00 20.1 22 Oeste 33 Noroeste 0 986.2 -- 63
2020-08-28 13:00:00 21 10 Norte 26 Norte 0 986.5 -- 58
2020-08-28 12:00:00 19.4 14 Norte 28 Norte 0 986.8 -- 67
2020-08-28 11:00:00 18.9 12 Nordeste 24 Este 0 986.9 -- 77
2020-08-28 10:00:00 17.3 9 Nordeste 17 Nordeste 0 987 -- 88
2020-08-28 09:00:00 15.9 5 Nordeste 15 Norte 0 986.7 -- 95
2020-08-28 08:00:00 14.4 8 Norte 21 Norte 0 986.7 -- 99
2020-08-28 07:00:00 14.8 10 Norte 18 Norte 0 986.5 -- 97
2020-08-28 06:00:00 15.2 14 Norte 32 Norte 0 986.5 -- 94
2020-08-28 05:00:00 16.7 10 Norte 18 Norte 0 986.7 -- 100
2020-08-28 04:00:00 17.8 5 Norte 17 Oeste 0 986.9 -- 100
2020-08-28 03:00:00 18.1 9 Oeste 24 Noroeste 0 987.6 -- 100
2020-08-28 02:00:00 18.8 12 Oeste 21 Oeste 0.1 988 -- 100
2020-08-28 01:00:00 19.4 3 Sur 9 Sudoeste 0.6 988.5 -- 100
2020-08-28 00:00:00 19.3 5 Sudoeste 15 Oeste 0.3 988.8 -- 100
2020-08-27 23:00:00 19.5 9 Sudoeste 18 Oeste 0 989.3 -- 100
2020-08-27 22:00:00 20.1 9 Oeste 33 Oeste 0 989.3 -- 100
2020-08-27 21:00:00 20.6 6 Oeste 21 Oeste 0 989.2 -- 100
2020-08-27 20:00:00 21.2 12 Oeste 17 Oeste 0 989.6 -- 99
2020-08-27 19:00:00 21.7 11 Oeste 22 Oeste 0 989.8 -- 93
2020-08-27 18:00:00 21.8 13 Oeste 21 Oeste 0 990.2 -- 95
2020-08-27 17:00:00 22.7 15 Oeste 26 Noroeste 0 990.3 -- 80
2020-08-27 16:00:00 21.6 11 Oeste 26 Oeste 0 990.7 -- 98
2020-08-27 15:00:00 21.6 19 Oeste 26 Oeste 0 991.2 -- 99
2020-08-27 14:00:00 20.8 14 Oeste 26 Oeste 0 991.4 -- 100
2020-08-27 13:00:00 22.5 7 Sudoeste 15 Sudoeste 0 991.5 -- 92
2020-08-27 12:00:00 21.5 4 Sudoeste 11 Sudoeste 0 991.6 -- 99
2020-08-27 11:00:00 20.9 3 Este 8 Este 0 991.3 -- 100
2020-08-27 10:00:00 19.8 4 Este 9 Sudoeste 0 991 -- 100
2020-08-27 09:00:00 19 5 Sur 8 Sur 0 990.8 -- 100
2020-08-27 08:00:00 18.7 4 Nordeste 8 Nordeste 0 990.9 -- 100
2020-08-27 07:00:00 18.9 4 Nordeste 11 Noroeste 0 990.9 -- 100
2020-08-27 06:00:00 18.9 8 Noroeste 13 Noroeste 0 991 -- 100
2020-08-27 05:00:00 19.2 6 Noroeste 11 Norte 0 990.8 -- 100
2020-08-27 04:00:00 19.4 4 Nordeste 11 Norte 0 990.8 -- 100
2020-08-27 03:00:00 19.6 4 Nordeste 9 Nordeste 0 991.2 -- 100
2020-08-27 02:00:00 19.7 4 Norte 9 Oeste 0 991.5 -- 100
2020-08-27 01:00:00 19.6 6 Oeste 11 Oeste 0 991.7 -- 100
2020-08-27 00:00:00 19.7 6 Noroeste 9 Norte 0 991.7 -- 100
2020-08-26 23:00:00 19.7 6 Norte 15 Noroeste 0 991.8 -- 100
2020-08-26 22:00:00 20.2 12 Noroeste 28 Oeste 0 991.3 -- 100
2020-08-26 21:00:00 20 15 Oeste 30 Oeste 0 990.9 -- 100
2020-08-26 20:00:00 20.4 24 Oeste 35 Oeste 0 990.5 -- 100
2020-08-26 19:00:00 23.6 24 Oeste 33 Oeste 0 990.6 -- 91
2020-08-26 18:00:00 24.6 26 Oeste 35 Oeste 0 990.4 -- 83
2020-08-26 17:00:00 26.1 19 Oeste 28 Oeste 0 990.4 -- 76
2020-08-26 16:00:00 26.5 16 Oeste 28 Oeste 0 990.5 -- 75
2020-08-26 15:00:00 26.6 19 Sudoeste 26 Sudoeste 0 990.6 -- 73
2020-08-26 14:00:00 26.9 9 Oeste 18 Sudoeste 0 990.7 -- 71
2020-08-26 13:00:00 26.9 9 Nordeste 13 Nordeste 0 990.7 -- 66
2020-08-26 12:00:00 25.2 6 Nordeste 13 Este 0 990.7 -- 76
2020-08-26 11:00:00 21.9 5 Este 11 Nordeste 0 990.5 -- 99
2020-08-26 10:00:00 18.7 8 Sur 11 Sur 0 990 -- 100
2020-08-26 09:00:00 18.3 2 Sudeste 9 Nordeste 0 989.6 -- 100
2020-08-26 08:00:00 18.1 5 Nordeste 11 Norte 0 989.2 -- 100
2020-08-26 07:00:00 18.4 7 Norte 11 Norte 0 988.9 -- 100
2020-08-26 06:00:00 18.5 3 Norte 8 Oeste 0 989 -- 100
2020-08-26 05:00:00 18.3 7 Oeste 9 Oeste 0 988.9 -- 100
2020-08-26 04:00:00 18.1 5 Oeste 8 Oeste 0 989 -- 100
2020-08-26 03:00:00 18.4 3 Noroeste 11 Noroeste 0 989.1 -- 100
2020-08-26 02:00:00 18.3 5 Noroeste 9 Norte 0 989.1 -- 100
2020-08-26 01:00:00 18.6 7 Norte 9 Norte 0 989.3 -- 100
2020-08-26 00:00:00 18.6 8 Noroeste 9 Noroeste 0 989.4 -- 100